createdAt,value
2023-01-23T00:00:12.756Z,94.09
2023-01-23T00:04:30.658Z,94.10
2023-01-23T00:08:28.784Z,94.10
2023-01-23T00:12:26.763Z,94.13
2023-01-23T00:16:26.652Z,94.15
2023-01-23T00:20:27.668Z,94.20
2023-01-23T00:24:26.658Z,94.22
2023-01-23T00:28:24.624Z,94.22
2023-01-23T00:32:22.765Z,94.23
2023-01-23T00:36:20.591Z,94.25
2023-01-23T00:40:19.867Z,94.30
2023-01-23T00:44:17.590Z,94.35
2023-01-23T00:48:15.635Z,94.38
2023-01-23T00:52:08.807Z,94.40
2023-01-23T00:56:06.618Z,94.41
2023-01-23T01:00:04.671Z,94.41
2023-01-23T01:04:02.640Z,94.44
2023-01-23T01:08:00.626Z,94.46
2023-01-23T01:11:58.595Z,94.50
2023-01-23T01:15:56.725Z,94.49
2023-01-23T01:19:54.659Z,94.48
2023-01-23T01:23:52.659Z,94.49
2023-01-23T01:27:53.584Z,94.50
2023-01-23T01:31:51.684Z,94.51
2023-01-23T01:35:49.625Z,94.53
2023-01-23T01:39:47.619Z,94.56
2023-01-23T01:43:47.542Z,94.57
2023-01-23T01:47:45.503Z,94.58
2023-01-23T01:51:51.548Z,94.53
2023-01-23T01:55:49.491Z,94.48
2023-01-23T01:59:50.499Z,94.47
2023-01-23T02:03:48.497Z,94.46
2023-01-23T02:07:49.595Z,94.47
2023-01-23T02:11:47.898Z,94.49
2023-01-23T02:15:45.477Z,94.51
2023-01-23T02:19:46.593Z,94.49
2023-01-23T02:24:03.493Z,94.47
2023-01-23T02:28:02.432Z,94.45
2023-01-23T02:32:02.586Z,94.45
2023-01-23T02:36:02.458Z,94.44
2023-01-23T02:40:00.512Z,94.40
2023-01-23T02:43:58.467Z,94.39
2023-01-23T02:47:56.471Z,94.38
2023-01-23T02:51:54.454Z,94.37
2023-01-23T02:55:52.454Z,94.35
2023-01-23T03:00:12.530Z,94.35
2023-01-23T03:04:11.428Z,94.34
2023-01-23T03:08:09.406Z,94.32
2023-01-23T03:12:08.438Z,94.27
2023-01-23T03:16:06.452Z,94.23
2023-01-23T03:20:04.376Z,94.21
2023-01-23T03:24:02.401Z,94.21
2023-01-23T03:28:00.437Z,94.19
2023-01-23T03:31:58.401Z,94.13
2023-01-23T03:35:56.379Z,94.08
2023-01-23T03:40:11.373Z,94.06
2023-01-23T03:44:10.527Z,94.06
2023-01-23T03:48:08.446Z,94.06
2023-01-23T03:52:07.356Z,94.09
2023-01-23T03:56:05.344Z,94.12
2023-01-23T04:00:03.345Z,94.17
2023-01-23T04:04:15.416Z,94.22
2023-01-23T04:08:13.328Z,94.22
2023-01-23T04:12:12.393Z,94.25
2023-01-23T04:16:12.466Z,94.23
2023-01-23T04:20:10.398Z,94.22
2023-01-23T04:24:08.386Z,94.25
2023-01-23T04:28:06.293Z,94.27
2023-01-23T04:32:04.343Z,94.31
2023-01-23T04:36:11.293Z,94.30
2023-01-23T04:40:09.302Z,94.31
2023-01-23T04:44:28.273Z,94.32
2023-01-23T04:48:46.836Z,94.34
2023-01-23T04:52:47.290Z,94.34
2023-01-23T04:56:46.383Z,94.37
2023-01-23T05:00:44.355Z,94.35
2023-01-23T05:04:22.986Z,94.38
2023-01-23T05:07:48.817Z,94.40
2023-01-23T05:11:13.574Z,94.42
2023-01-23T05:14:38.413Z,94.44
2023-01-23T05:18:02.562Z,94.45
2023-01-23T05:21:26.861Z,94.41
2023-01-23T05:24:51.293Z,94.40
2023-01-23T05:28:15.205Z,94.40
2023-01-23T05:31:44.115Z,94.41
2023-01-23T05:35:31.139Z,94.44
2023-01-23T05:38:56.108Z,94.46
2023-01-23T05:42:21.296Z,94.46
2023-01-23T05:45:57.044Z,94.42
2023-01-23T05:49:25.643Z,94.38
2023-01-23T05:52:49.579Z,94.35
2023-01-23T05:56:14.420Z,94.33
2023-01-23T06:00:01.453Z,94.31
2023-01-23T06:03:38.668Z,94.29
2023-01-23T06:07:21.540Z,94.26
2023-01-23T06:10:48.537Z,94.29
2023-01-23T06:14:13.120Z,94.30
2023-01-23T06:17:37.130Z,94.33
2023-01-23T06:21:02.334Z,94.34
2023-01-23T06:24:26.383Z,94.31
2023-01-23T06:27:50.939Z,94.30
2023-01-23T06:31:15.282Z,94.32
2023-01-23T06:34:54.245Z,94.34
2023-01-23T06:38:18.028Z,94.31
2023-01-23T06:41:44.574Z,94.26
2023-01-23T06:45:12.747Z,94.23
2023-01-23T06:48:36.976Z,94.22
2023-01-23T06:52:00.861Z,94.22
2023-01-23T06:55:25.532Z,94.22
2023-01-23T06:58:50.420Z,94.20
2023-01-23T07:02:21.494Z,94.20
2023-01-23T07:05:47.761Z,94.20
2023-01-23T07:09:12.551Z,94.18
2023-01-23T07:12:37.969Z,94.13
2023-01-23T07:16:03.666Z,94.11
2023-01-23T07:19:28.024Z,94.09
2023-01-23T07:22:52.441Z,94.09
2023-01-23T07:26:16.171Z,94.10
2023-01-23T07:29:40.240Z,94.07
2023-01-23T07:33:04.729Z,94.01
2023-01-23T07:36:29.126Z,93.85
2023-01-23T07:39:53.717Z,93.79
2023-01-23T07:43:17.598Z,93.80
2023-01-23T07:46:41.625Z,93.82
2023-01-23T07:50:05.721Z,93.83
2023-01-23T07:53:29.465Z,93.85
2023-01-23T07:56:53.267Z,93.85
2023-01-23T08:00:17.719Z,93.85
2023-01-23T08:03:41.940Z,93.82
2023-01-23T08:07:05.945Z,93.77
2023-01-23T08:10:32.084Z,93.69
2023-01-23T08:13:56.090Z,93.62
2023-01-23T08:17:20.174Z,93.60
2023-01-23T08:20:44.061Z,93.62
2023-01-23T08:24:08.551Z,93.65
2023-01-23T08:27:32.324Z,93.66
2023-01-23T08:30:57.372Z,93.63
2023-01-23T08:34:21.853Z,93.45
2023-01-23T08:37:45.805Z,93.32
2023-01-23T08:41:11.997Z,93.15
2023-01-23T08:44:36.022Z,92.89
2023-01-23T08:48:00.325Z,92.70
2023-01-23T08:51:25.297Z,92.71
2023-01-23T08:54:49.103Z,92.75
2023-01-23T08:58:13.735Z,92.82
2023-01-23T09:01:37.883Z,92.74
2023-01-23T09:05:01.795Z,92.62
2023-01-23T09:08:25.720Z,92.61
2023-01-23T09:11:49.725Z,92.60
2023-01-23T09:15:13.721Z,92.57
2023-01-23T09:18:38.124Z,92.64
2023-01-23T09:22:01.980Z,92.71
2023-01-23T09:25:25.781Z,92.81
2023-01-23T09:28:51.165Z,92.78
2023-01-23T09:32:14.948Z,92.75
2023-01-23T09:35:38.848Z,92.79
2023-01-23T09:39:03.748Z,92.85
2023-01-23T09:42:32.937Z,92.87
2023-01-23T09:46:09.326Z,92.83
2023-01-23T09:49:45.881Z,92.85
2023-01-23T09:53:14.068Z,92.85
2023-01-23T09:56:41.807Z,92.76
2023-01-23T10:00:15.045Z,92.66
2023-01-23T10:03:39.323Z,92.54
2023-01-23T10:07:03.850Z,92.46
2023-01-23T10:10:46.463Z,92.37
2023-01-23T10:14:13.081Z,92.40
2023-01-23T10:17:42.736Z,92.55
2023-01-23T10:21:14.014Z,92.66
2023-01-23T10:24:40.472Z,92.67
2023-01-23T10:28:23.510Z,92.60
2023-01-23T10:31:51.426Z,92.49
2023-01-23T10:35:22.210Z,92.46
2023-01-23T10:38:48.887Z,92.42
2023-01-23T10:42:14.183Z,92.39
2023-01-23T10:45:38.971Z,92.29
2023-01-23T10:49:03.606Z,92.30
2023-01-23T10:52:32.840Z,92.40
2023-01-23T10:55:59.761Z,92.34
2023-01-23T10:59:27.875Z,92.27
2023-01-23T11:02:51.950Z,92.35
2023-01-23T11:06:19.272Z,92.37
2023-01-23T11:09:47.507Z,92.35
2023-01-23T11:13:22.585Z,92.32
2023-01-23T11:16:46.770Z,92.34
2023-01-23T11:20:24.716Z,92.36
2023-01-23T11:23:48.861Z,92.17
2023-01-23T11:27:19.503Z,92.21
2023-01-23T11:30:43.681Z,92.13
2023-01-23T11:34:15.250Z,92.15
2023-01-23T11:37:41.090Z,92.04
2023-01-23T11:41:05.801Z,91.97
2023-01-23T11:44:38.049Z,91.89
2023-01-23T11:48:35.329Z,91.93
2023-01-23T11:52:18.234Z,92.09
2023-01-23T11:55:51.572Z,92.17
2023-01-23T11:59:24.330Z,92.25
2023-01-23T12:03:03.430Z,92.18
2023-01-23T12:06:35.752Z,92.18
2023-01-23T12:09:59.559Z,92.13
2023-01-23T12:13:38.868Z,92.12
2023-01-23T12:17:08.907Z,92.15
2023-01-23T12:20:35.976Z,92.16
2023-01-23T12:24:19.024Z,92.13
2023-01-23T12:27:44.686Z,92.14
2023-01-23T12:31:23.686Z,92.25
2023-01-23T12:35:06.230Z,92.32
2023-01-23T12:38:38.512Z,92.34
2023-01-23T12:42:05.666Z,92.38
2023-01-23T12:45:30.796Z,92.46
2023-01-23T12:48:59.573Z,92.50
2023-01-23T12:52:42.202Z,92.54
2023-01-23T12:56:08.946Z,92.63
2023-01-23T12:59:42.550Z,92.65
2023-01-23T13:03:25.883Z,92.68
2023-01-23T13:07:03.274Z,92.73
2023-01-23T13:11:02.320Z,92.74
2023-01-23T13:14:43.462Z,92.81
2023-01-23T13:18:28.470Z,92.86
2023-01-23T13:22:19.023Z,92.90
2023-01-23T13:25:50.414Z,92.92
2023-01-23T13:29:34.249Z,92.96
2023-01-23T13:33:04.075Z,92.96
2023-01-23T13:36:29.793Z,92.98
2023-01-23T13:40:15.600Z,92.92
2023-01-23T13:43:44.251Z,92.95
2023-01-23T14:22:15.111Z,93.30
2023-01-23T14:25:38.925Z,93.35
2023-01-23T14:29:02.701Z,93.37
2023-01-23T14:32:39.889Z,93.36
2023-01-23T14:36:23.942Z,93.38
2023-01-23T14:40:11.741Z,93.48
2023-01-23T14:43:50.922Z,93.52
2023-01-23T14:47:32.811Z,93.54
2023-01-23T14:51:10.828Z,93.56
2023-01-23T14:54:53.833Z,93.60
2023-01-23T14:58:31.990Z,93.61
2023-01-23T15:02:20.269Z,93.60
2023-01-23T15:06:01.925Z,93.63
2023-01-23T15:09:38.702Z,93.66
2023-01-23T15:13:23.173Z,93.70
2023-01-23T15:16:59.733Z,93.70
2023-01-23T15:20:50.753Z,93.72
2023-01-23T15:24:41.771Z,93.71
2023-01-23T15:28:32.630Z,93.71
2023-01-23T15:32:23.715Z,93.72
2023-01-23T15:36:14.653Z,93.75
2023-01-23T15:40:09.672Z,93.79
2023-01-23T15:44:00.746Z,93.83
2023-01-23T15:47:52.520Z,93.90
2023-01-23T15:51:43.661Z,93.92
2023-01-23T15:55:34.709Z,93.95
2023-01-23T15:59:18.860Z,93.92
2023-01-23T16:02:57.288Z,93.92
2023-01-23T16:06:34.736Z,93.95
2023-01-23T16:10:11.625Z,93.97
2023-01-23T16:13:48.756Z,93.96
2023-01-23T16:17:25.754Z,93.98
2023-01-23T16:21:02.711Z,93.98
2023-01-23T16:24:39.819Z,93.99
2023-01-23T16:28:10.245Z,94.00
2023-01-23T16:31:53.710Z,94.04
2023-01-23T16:35:24.122Z,94.07
2023-01-23T16:39:07.572Z,94.04
2023-01-23T16:42:39.001Z,94.06
2023-01-23T16:46:22.623Z,94.06
2023-01-23T16:49:54.221Z,94.06
2023-01-23T16:53:38.637Z,94.05
2023-01-23T16:57:09.226Z,94.07
2023-01-23T17:00:59.559Z,94.05
2023-01-23T17:04:50.505Z,94.04
2023-01-23T17:08:41.513Z,94.04
2023-01-23T17:12:34.531Z,94.04
2023-01-23T17:16:27.666Z,94.08
2023-01-23T17:20:18.605Z,94.10
2023-01-23T17:24:09.605Z,94.07
2023-01-23T17:28:12.339Z,94.06
2023-01-23T17:32:03.578Z,94.08
2023-01-23T17:35:54.503Z,94.07
2023-01-23T17:39:45.559Z,94.11
2023-01-23T17:43:36.555Z,94.12
2023-01-23T17:47:27.811Z,94.10
2023-01-23T17:51:21.566Z,94.09
2023-01-23T17:55:12.548Z,94.12
2023-01-23T17:58:56.625Z,94.11
2023-01-23T18:02:33.589Z,94.11
2023-01-23T18:06:10.601Z,94.16
2023-01-23T18:09:54.442Z,94.23
2023-01-23T18:13:45.431Z,94.26
2023-01-23T18:17:37.437Z,94.23
2023-01-23T18:21:28.523Z,94.23
2023-01-23T18:25:20.050Z,94.25
2023-01-23T18:29:11.571Z,94.28
2023-01-23T18:33:02.443Z,94.29
2023-01-23T18:36:53.395Z,94.28
2023-01-23T18:40:44.419Z,94.28
2023-01-23T18:44:35.367Z,94.29
2023-01-23T18:48:26.392Z,94.31
2023-01-23T18:52:17.398Z,94.30
2023-01-23T18:56:08.404Z,94.30
2023-01-23T18:59:54.639Z,94.30
2023-01-23T19:03:32.622Z,94.28
2023-01-23T19:07:09.572Z,94.27
2023-01-23T19:10:49.143Z,94.29
2023-01-23T19:14:26.614Z,94.31
2023-01-23T19:18:03.348Z,94.31
2023-01-23T19:21:47.668Z,94.29
2023-01-23T19:25:26.440Z,94.29
2023-01-23T19:29:19.258Z,94.30
2023-01-23T19:32:57.291Z,94.31
2023-01-23T19:36:34.642Z,94.30
2023-01-23T19:40:11.390Z,94.29
2023-01-23T19:43:48.418Z,94.28
2023-01-23T19:47:25.312Z,94.29
2023-01-23T19:51:02.696Z,94.29
2023-01-23T19:54:39.373Z,94.29
2023-01-23T19:58:32.176Z,94.28
2023-01-23T20:02:25.440Z,94.28
2023-01-23T20:05:56.203Z,94.29
2023-01-23T20:09:40.403Z,94.32
2023-01-23T20:13:12.550Z,94.35
2023-01-23T20:16:56.268Z,94.35
2023-01-23T20:20:47.427Z,94.35
2023-01-23T20:24:38.273Z,94.33
2023-01-23T20:28:22.404Z,94.31
2023-01-23T20:31:59.721Z,94.30
2023-01-23T20:35:38.493Z,94.31
2023-01-23T20:39:15.356Z,94.32
2023-01-23T20:42:54.351Z,94.32
2023-01-23T20:46:31.286Z,94.33
2023-01-23T20:50:08.454Z,94.34
2023-01-23T20:53:46.222Z,94.33
2023-01-23T20:57:23.308Z,94.34
2023-01-23T21:01:00.235Z,94.36
2023-01-23T21:04:52.237Z,94.36
2023-01-23T21:08:43.262Z,94.36
2023-01-23T21:12:34.263Z,94.36
2023-01-23T21:16:30.002Z,94.36
2023-01-23T21:20:21.215Z,94.35
2023-01-23T21:24:12.248Z,94.35
2023-01-23T21:28:03.132Z,94.36
2023-01-23T21:31:54.410Z,94.37
2023-01-23T21:35:45.275Z,94.38
2023-01-23T21:39:37.318Z,94.39
2023-01-23T21:43:28.199Z,94.39
2023-01-23T21:47:20.234Z,94.37
2023-01-23T21:51:11.149Z,94.38
2023-01-23T21:55:02.165Z,94.40
2023-01-23T21:58:55.107Z,94.40
2023-01-23T22:02:46.322Z,94.40
2023-01-23T22:06:37.206Z,94.39
2023-01-23T22:10:28.222Z,94.39
2023-01-23T22:14:21.136Z,94.41
2023-01-23T22:18:12.106Z,94.43
2023-01-23T22:22:04.057Z,94.42
2023-01-23T22:25:55.102Z,94.42
2023-01-23T22:29:46.151Z,94.41
2023-01-23T22:33:40.940Z,94.37
2023-01-23T22:37:32.172Z,94.37
2023-01-23T22:41:23.089Z,94.37
2023-01-23T22:45:14.051Z,94.38
2023-01-23T22:49:05.324Z,94.42
2023-01-23T22:52:56.021Z,94.45
2023-01-23T22:56:47.196Z,94.46
2023-01-23T23:00:38.227Z,94.46
2023-01-23T23:04:29.232Z,94.47
2023-01-23T23:08:20.088Z,94.48
2023-01-23T23:12:11.109Z,94.48
2023-01-23T23:16:02.119Z,94.49
2023-01-23T23:19:53.032Z,94.48
2023-01-23T23:23:44.033Z,94.46
2023-01-23T23:27:35.103Z,94.44
2023-01-23T23:31:27.155Z,94.44
2023-01-23T23:35:17.968Z,94.43
2023-01-23T23:39:09.011Z,94.41
2023-01-23T23:43:00.077Z,94.40
2023-01-23T23:46:50.964Z,94.40
2023-01-23T23:50:42.083Z,94.40
2023-01-23T23:54:32.959Z,94.37
2023-01-23T23:58:24.005Z,94.37
